createdAt,value
2022-09-06T00:00:44.136Z,1010.74
2022-09-06T00:01:44.131Z,1010.73
2022-09-06T00:02:44.233Z,1010.73
2022-09-06T00:03:44.142Z,1010.73
2022-09-06T00:04:44.092Z,1010.74
2022-09-06T00:05:44.071Z,1010.74
2022-09-06T00:06:44.073Z,1010.74
2022-09-06T00:07:44.059Z,1010.74
2022-09-06T00:08:44.045Z,1010.74
2022-09-06T00:09:44.024Z,1010.75
2022-09-06T00:10:44.023Z,1010.74
2022-09-06T00:11:44.013Z,1010.73
2022-09-06T00:12:43.997Z,1010.72
2022-09-06T00:13:43.984Z,1010.71
2022-09-06T00:14:44.000Z,1010.69
2022-09-06T00:15:44.011Z,1010.67
2022-09-06T00:16:43.969Z,1010.66
2022-09-06T00:17:43.964Z,1010.64
2022-09-06T00:18:43.953Z,1010.63
2022-09-06T00:19:43.921Z,1010.63
2022-09-06T00:20:43.956Z,1010.62
2022-09-06T00:21:43.922Z,1010.61
2022-09-06T00:22:43.943Z,1010.61
2022-09-06T00:23:43.880Z,1010.62
2022-09-06T00:24:43.913Z,1010.62
2022-09-06T00:25:43.868Z,1010.62
2022-09-06T00:26:43.896Z,1010.61
2022-09-06T00:27:43.900Z,1010.62
2022-09-06T00:28:43.839Z,1010.62
2022-09-06T00:29:44.070Z,1010.63
2022-09-06T00:30:43.847Z,1010.64
2022-09-06T00:31:43.814Z,1010.65
2022-09-06T00:32:43.840Z,1010.65
2022-09-06T00:33:43.791Z,1010.65
2022-09-06T00:34:43.835Z,1010.66
2022-09-06T00:35:43.789Z,1010.66
2022-09-06T00:36:43.761Z,1010.69
2022-09-06T00:37:43.759Z,1010.71
2022-09-06T00:38:43.763Z,1010.72
2022-09-06T00:39:43.824Z,1010.71
2022-09-06T00:40:43.732Z,1010.70
2022-09-06T00:41:43.756Z,1010.70
2022-09-06T00:42:43.705Z,1010.69
2022-09-06T00:43:43.685Z,1010.68
2022-09-06T00:44:43.678Z,1010.68
2022-09-06T00:45:43.689Z,1010.68
2022-09-06T00:46:43.678Z,1010.69
2022-09-06T00:47:43.644Z,1010.69
2022-09-06T00:48:43.659Z,1010.70
2022-09-06T00:49:43.641Z,1010.68
2022-09-06T00:50:43.681Z,1010.66
2022-09-06T00:51:43.613Z,1010.64
2022-09-06T00:52:43.596Z,1010.62
2022-09-06T00:53:43.581Z,1010.60
2022-09-06T00:54:43.578Z,1010.59
2022-09-06T00:55:43.555Z,1010.59
2022-09-06T00:56:43.605Z,1010.58
2022-09-06T00:57:43.566Z,1010.57
2022-09-06T00:58:43.549Z,1010.56
2022-09-06T00:59:43.574Z,1010.54
2022-09-06T01:00:43.557Z,1010.54
2022-09-06T01:01:43.789Z,1010.53
2022-09-06T01:02:43.726Z,1010.53
2022-09-06T01:03:43.490Z,1010.53
2022-09-06T01:04:43.504Z,1010.53
2022-09-06T01:05:43.469Z,1010.53
2022-09-06T01:06:43.468Z,1010.54
2022-09-06T01:07:43.451Z,1010.53
2022-09-06T01:08:43.463Z,1010.53
2022-09-06T01:09:43.440Z,1010.52
2022-09-06T01:10:43.425Z,1010.52
2022-09-06T01:11:43.420Z,1010.50
2022-09-06T01:12:43.447Z,1010.50
2022-09-06T01:13:43.416Z,1010.51
2022-09-06T01:14:43.419Z,1010.51
2022-09-06T01:15:43.396Z,1010.52
2022-09-06T01:16:43.370Z,1010.51
2022-09-06T01:17:43.384Z,1010.52
2022-09-06T01:18:43.348Z,1010.52
2022-09-06T01:19:43.346Z,1010.54
2022-09-06T01:20:43.339Z,1010.57
2022-09-06T01:21:43.303Z,1010.61
2022-09-06T01:22:43.335Z,1010.65
2022-09-06T01:23:43.362Z,1010.66
2022-09-06T01:24:43.289Z,1010.64
2022-09-06T01:25:43.288Z,1010.60
2022-09-06T01:26:43.308Z,1010.57
2022-09-06T01:27:43.261Z,1010.59
2022-09-06T01:28:43.264Z,1010.61
2022-09-06T01:29:43.255Z,1010.62
2022-09-06T01:30:43.245Z,1010.61
2022-09-06T01:31:43.213Z,1010.57
2022-09-06T01:32:43.245Z,1010.56
2022-09-06T01:33:43.312Z,1010.59
2022-09-06T01:34:43.173Z,1010.64
2022-09-06T01:35:43.164Z,1010.68
2022-09-06T01:37:06.196Z,1010.68
2022-09-06T01:37:43.164Z,1010.68
2022-09-06T01:38:43.217Z,1010.76
2022-09-06T01:39:43.194Z,1010.90
2022-09-06T01:40:43.161Z,1011.00
2022-09-06T01:41:43.129Z,1011.00
2022-09-06T01:42:43.373Z,1011.01
2022-09-06T01:43:43.193Z,1011.04
2022-09-06T01:44:43.249Z,1011.05
2022-09-06T01:45:43.115Z,1011.03
2022-09-06T01:46:43.106Z,1010.95
2022-09-06T01:47:43.062Z,1010.88
2022-09-06T01:48:43.068Z,1010.87
2022-09-06T01:49:43.071Z,1010.92
2022-09-06T01:50:43.031Z,1011.00
2022-09-06T01:51:43.029Z,1010.96
2022-09-06T01:52:43.045Z,1010.94
2022-09-06T01:53:43.019Z,1010.97
2022-09-06T01:54:43.005Z,1010.98
2022-09-06T01:55:42.982Z,1010.92
2022-09-06T01:56:43.236Z,1010.92
2022-09-06T01:57:42.954Z,1010.97
2022-09-06T01:58:42.962Z,1010.95
2022-09-06T01:59:42.937Z,1010.94
2022-09-06T02:00:42.929Z,1010.95
2022-09-06T02:01:42.994Z,1010.94
2022-09-06T02:02:43.004Z,1010.92
2022-09-06T02:03:42.906Z,1010.94
2022-09-06T02:04:42.943Z,1010.96
2022-09-06T02:05:42.874Z,1010.94
2022-09-06T02:06:42.882Z,1010.93
2022-09-06T02:07:42.866Z,1010.93
2022-09-06T02:08:42.885Z,1010.96
2022-09-06T02:09:42.898Z,1010.96
2022-09-06T02:10:42.849Z,1010.97
2022-09-06T02:11:42.838Z,1010.98
2022-09-06T02:12:42.813Z,1011.04
2022-09-06T02:13:42.807Z,1011.11
2022-09-06T02:14:42.841Z,1011.13
2022-09-06T02:15:42.790Z,1011.09
2022-09-06T02:16:42.884Z,1011.07
2022-09-06T02:17:42.879Z,1011.05
2022-09-06T02:18:42.733Z,1011.05
2022-09-06T02:19:42.766Z,1011.05
2022-09-06T02:20:42.759Z,1011.06
2022-09-06T02:21:42.723Z,1011.07
2022-09-06T02:22:42.791Z,1011.07
2022-09-06T02:23:42.742Z,1011.05
2022-09-06T02:24:42.706Z,1011.04
2022-09-06T02:25:42.701Z,1011.07
2022-09-06T02:26:42.665Z,1011.10
2022-09-06T02:27:42.718Z,1011.10
2022-09-06T02:28:42.674Z,1011.06
2022-09-06T02:29:42.669Z,1011.06
2022-09-06T02:30:42.707Z,1011.07
2022-09-06T02:31:42.614Z,1011.04
2022-09-06T02:32:42.630Z,1011.03
2022-09-06T02:33:42.645Z,1011.01
2022-09-06T02:34:42.615Z,1011.00
2022-09-06T02:35:42.582Z,1010.98
2022-09-06T02:36:42.562Z,1010.98
2022-09-06T02:37:42.575Z,1010.99
2022-09-06T02:38:42.534Z,1011.02
2022-09-06T02:39:42.571Z,1011.05
2022-09-06T02:40:42.519Z,1011.05
2022-09-06T02:41:42.509Z,1011.04
2022-09-06T02:42:42.493Z,1011.02
2022-09-06T02:43:42.504Z,1011.00
2022-09-06T02:44:42.516Z,1010.99
2022-09-06T02:45:42.724Z,1010.99
2022-09-06T02:46:42.446Z,1010.99
2022-09-06T02:47:42.509Z,1010.98
2022-09-06T02:48:42.539Z,1010.99
2022-09-06T02:49:42.462Z,1010.97
2022-09-06T02:50:42.462Z,1010.98
2022-09-06T02:51:42.412Z,1011.01
2022-09-06T02:52:42.390Z,1011.02
2022-09-06T02:53:42.442Z,1011.02
2022-09-06T02:54:42.355Z,1011.02
2022-09-06T02:55:42.413Z,1011.01
2022-09-06T02:56:42.385Z,1011.00
2022-09-06T02:57:42.340Z,1011.00
2022-09-06T02:58:42.310Z,1010.98
2022-09-06T02:59:42.327Z,1010.98
2022-09-06T03:00:42.314Z,1010.97
2022-09-06T03:01:42.357Z,1010.97
2022-09-06T03:02:42.347Z,1010.97
2022-09-06T03:03:42.279Z,1010.96
2022-09-06T03:04:42.281Z,1010.94
2022-09-06T03:05:42.288Z,1010.92
2022-09-06T03:06:42.247Z,1010.87
2022-09-06T03:07:42.226Z,1010.82
2022-09-06T03:08:42.213Z,1010.78
2022-09-06T03:09:42.238Z,1010.72
2022-09-06T03:10:42.221Z,1010.70
2022-09-06T03:11:42.194Z,1010.68
2022-09-06T03:12:42.178Z,1010.67
2022-09-06T03:13:42.939Z,1010.65
2022-09-06T03:14:42.156Z,1010.65
2022-09-06T03:15:42.172Z,1010.64
2022-09-06T03:16:42.216Z,1010.63
2022-09-06T03:17:42.162Z,1010.61
2022-09-06T03:18:42.121Z,1010.59
2022-09-06T03:19:42.140Z,1010.57
2022-09-06T03:20:42.092Z,1010.57
2022-09-06T03:21:42.117Z,1010.60
2022-09-06T03:22:42.089Z,1010.63
2022-09-06T03:23:42.071Z,1010.65
2022-09-06T03:24:42.051Z,1010.66
2022-09-06T03:25:42.091Z,1010.65
2022-09-06T03:26:42.066Z,1010.63
2022-09-06T03:27:42.025Z,1010.59
2022-09-06T03:28:42.026Z,1010.56
2022-09-06T03:29:42.016Z,1010.51
2022-09-06T03:30:42.102Z,1010.47
2022-09-06T03:31:42.023Z,1010.43
2022-09-06T03:32:41.970Z,1010.40
2022-09-06T03:33:42.037Z,1010.38
2022-09-06T03:34:41.984Z,1010.36
2022-09-06T03:35:41.944Z,1010.34
2022-09-06T03:36:41.940Z,1010.32
2022-09-06T03:37:41.927Z,1010.29
2022-09-06T03:38:41.941Z,1010.30
2022-09-06T03:39:42.012Z,1010.28
2022-09-06T03:40:41.895Z,1010.29
2022-09-06T03:41:41.897Z,1010.31
2022-09-06T03:42:41.898Z,1010.36
2022-09-06T03:43:41.885Z,1010.39
2022-09-06T03:44:41.836Z,1010.40
2022-09-06T03:45:41.936Z,1010.42
2022-09-06T03:46:41.976Z,1010.45
2022-09-06T03:47:41.892Z,1010.46
2022-09-06T03:48:41.918Z,1010.47
2022-09-06T03:49:41.806Z,1010.48
2022-09-06T03:50:41.818Z,1010.51
2022-09-06T03:51:41.800Z,1010.56
2022-09-06T03:52:41.765Z,1010.59
2022-09-06T03:53:41.820Z,1010.62
2022-09-06T03:54:41.742Z,1010.63
2022-09-06T03:55:41.738Z,1010.64
2022-09-06T03:56:41.747Z,1010.65
2022-09-06T03:57:41.740Z,1010.68
2022-09-06T03:58:41.728Z,1010.72
2022-09-06T03:59:41.710Z,1010.75
2022-09-06T04:00:41.711Z,1010.76
2022-09-06T04:01:41.819Z,1010.78
2022-09-06T04:02:41.785Z,1010.79
2022-09-06T04:03:41.712Z,1010.79
2022-09-06T04:04:41.660Z,1010.78
2022-09-06T04:05:41.631Z,1010.79
2022-09-06T04:06:41.631Z,1010.83
2022-09-06T04:07:41.639Z,1010.87
2022-09-06T04:08:41.607Z,1010.89
2022-09-06T04:09:41.621Z,1010.88
2022-09-06T04:10:41.589Z,1010.91
2022-09-06T04:11:44.937Z,1010.96
2022-09-06T04:12:41.603Z,1010.96
2022-09-06T04:13:41.598Z,1010.87
2022-09-06T04:14:41.542Z,1010.75
2022-09-06T04:15:41.555Z,1010.70
2022-09-06T04:16:41.704Z,1010.69
2022-09-06T04:17:41.692Z,1010.70
2022-09-06T04:18:41.554Z,1010.70
2022-09-06T04:19:41.564Z,1010.74
2022-09-06T04:20:41.497Z,1010.78
2022-09-06T04:21:41.479Z,1010.78
2022-09-06T04:22:41.460Z,1010.83
2022-09-06T04:23:41.475Z,1010.94
2022-09-06T04:24:41.477Z,1010.97
2022-09-06T04:25:41.416Z,1010.85
2022-09-06T04:26:41.434Z,1010.58
2022-09-06T04:27:41.429Z,1010.42
2022-09-06T04:28:41.413Z,1010.40
2022-09-06T04:29:41.385Z,1010.41
2022-09-06T04:30:41.383Z,1010.42
2022-09-06T04:31:41.461Z,1010.45
2022-09-06T04:32:41.369Z,1010.48
2022-09-06T04:33:41.323Z,1010.51
2022-09-06T04:34:41.377Z,1010.55
2022-09-06T04:35:41.290Z,1010.58
2022-09-06T04:36:42.858Z,1010.61
2022-09-06T04:37:41.268Z,1010.64
2022-09-06T04:38:41.292Z,1010.67
2022-09-06T04:39:41.279Z,1010.68
2022-09-06T04:40:41.223Z,1010.63
2022-09-06T04:41:41.236Z,1010.58
2022-09-06T04:42:41.221Z,1010.55
2022-09-06T04:43:41.202Z,1010.52
2022-09-06T04:44:41.198Z,1010.48
2022-09-06T04:45:41.316Z,1010.49
2022-09-06T04:46:41.145Z,1010.53
2022-09-06T04:47:41.194Z,1010.58
2022-09-06T04:48:41.166Z,1010.64
2022-09-06T04:49:41.169Z,1010.62
2022-09-06T04:50:41.153Z,1010.59
2022-09-06T04:51:41.156Z,1010.56
2022-09-06T04:52:41.126Z,1010.55
2022-09-06T04:53:41.099Z,1010.56
2022-09-06T04:54:41.093Z,1010.56
2022-09-06T04:55:41.075Z,1010.54
2022-09-06T04:56:41.055Z,1010.52
2022-09-06T04:57:45.141Z,1010.51
2022-09-06T04:58:41.055Z,1010.54
2022-09-06T04:59:41.102Z,1010.60
2022-09-06T05:00:41.052Z,1010.66
2022-09-06T05:01:41.048Z,1010.74
2022-09-06T05:02:41.066Z,1010.83
2022-09-06T05:03:40.995Z,1010.91
2022-09-06T05:04:40.995Z,1011.00
2022-09-06T05:05:41.019Z,1011.14
2022-09-06T05:06:40.969Z,1011.24
2022-09-06T05:07:40.951Z,1011.24
2022-09-06T05:08:40.943Z,1011.16
2022-09-06T05:09:40.969Z,1011.04
2022-09-06T05:10:40.936Z,1010.95
2022-09-06T05:11:40.919Z,1010.93
2022-09-06T05:12:44.174Z,1010.98
2022-09-06T05:13:40.914Z,1011.05
2022-09-06T05:14:40.878Z,1011.11
2022-09-06T05:15:40.901Z,1011.14
2022-09-06T05:16:40.998Z,1011.15
2022-09-06T05:17:40.900Z,1011.13
2022-09-06T05:18:40.859Z,1011.12
2022-09-06T05:19:40.842Z,1011.13
2022-09-06T05:20:40.862Z,1011.12
2022-09-06T05:21:40.871Z,1011.10
2022-09-06T05:22:40.805Z,1011.08
2022-09-06T05:23:40.792Z,1011.10
2022-09-06T05:24:40.785Z,1011.12
2022-09-06T05:25:40.787Z,1011.14
2022-09-06T05:26:40.798Z,1011.15
2022-09-06T05:27:40.763Z,1011.13
2022-09-06T05:28:40.736Z,1011.08
2022-09-06T05:29:40.742Z,1011.06
2022-09-06T05:30:40.716Z,1011.06
2022-09-06T05:31:40.774Z,1011.06
2022-09-06T05:32:40.701Z,1011.06
2022-09-06T05:33:40.692Z,1011.05
2022-09-06T05:34:40.676Z,1011.03
2022-09-06T05:35:40.678Z,1010.99
2022-09-06T05:36:40.708Z,1010.99
2022-09-06T05:37:40.661Z,1010.97
2022-09-06T05:38:40.634Z,1010.96
2022-09-06T05:39:40.773Z,1010.96
2022-09-06T05:40:40.623Z,1010.97
2022-09-06T05:41:41.390Z,1010.99
2022-09-06T05:42:40.738Z,1011.02
2022-09-06T05:43:40.671Z,1011.05
2022-09-06T05:44:40.649Z,1011.06
2022-09-06T05:45:40.614Z,1011.06
2022-09-06T05:46:40.568Z,1011.05
2022-09-06T05:47:40.550Z,1011.04
2022-09-06T05:48:40.533Z,1011.00
2022-09-06T05:49:40.548Z,1010.95
2022-09-06T05:50:40.529Z,1010.90
2022-09-06T05:51:40.529Z,1010.89
2022-09-06T05:52:40.509Z,1010.89
2022-09-06T05:53:40.527Z,1010.89
2022-09-06T05:54:40.476Z,1010.89
2022-09-06T05:55:42.999Z,1010.89
2022-09-06T05:56:40.469Z,1010.90
2022-09-06T05:57:40.464Z,1010.90
2022-09-06T05:58:40.447Z,1010.90
2022-09-06T05:59:40.442Z,1010.91
2022-09-06T06:00:40.394Z,1010.93
2022-09-06T06:01:40.469Z,1010.93
2022-09-06T06:02:40.460Z,1010.93
2022-09-06T06:03:40.386Z,1010.92
2022-09-06T06:04:40.395Z,1010.92
2022-09-06T06:05:40.411Z,1010.93
2022-09-06T06:06:40.346Z,1010.94
2022-09-06T06:07:40.339Z,1010.93
2022-09-06T06:08:40.332Z,1010.93
2022-09-06T06:09:40.330Z,1010.93
2022-09-06T06:10:40.328Z,1010.94
2022-09-06T06:11:40.295Z,1010.95
2022-09-06T06:12:40.295Z,1010.94
2022-09-06T06:13:40.339Z,1010.94
2022-09-06T06:14:40.407Z,1010.93
2022-09-06T06:15:40.272Z,1010.94
2022-09-06T06:16:40.408Z,1010.94
2022-09-06T06:17:40.255Z,1010.95
2022-09-06T06:18:40.265Z,1010.94
2022-09-06T06:19:40.217Z,1010.94
2022-09-06T06:20:40.231Z,1010.93
2022-09-06T06:21:40.171Z,1010.93
2022-09-06T06:22:40.189Z,1010.92
2022-09-06T06:23:40.204Z,1010.90
2022-09-06T06:24:40.187Z,1010.90
2022-09-06T06:25:40.174Z,1010.89
2022-09-06T06:26:40.186Z,1010.88
2022-09-06T06:27:40.130Z,1010.87
2022-09-06T06:28:40.130Z,1010.87
2022-09-06T06:29:40.129Z,1010.88
2022-09-06T06:30:40.106Z,1010.90
2022-09-06T06:31:40.181Z,1010.92
2022-09-06T06:32:40.082Z,1010.93
2022-09-06T06:33:40.107Z,1010.95
2022-09-06T06:34:40.066Z,1010.96
2022-09-06T06:35:40.272Z,1010.96
2022-09-06T06:36:40.031Z,1010.95
2022-09-06T06:37:40.047Z,1010.94
2022-09-06T06:38:40.036Z,1010.94
2022-09-06T06:39:40.288Z,1010.93
2022-09-06T06:40:39.988Z,1010.93
2022-09-06T06:41:39.979Z,1010.94
2022-09-06T06:42:39.962Z,1010.97
2022-09-06T06:43:39.953Z,1010.99
2022-09-06T06:44:39.976Z,1011.01
2022-09-06T06:45:40.063Z,1011.02
2022-09-06T06:46:39.920Z,1011.04
2022-09-06T06:47:39.916Z,1011.06
2022-09-06T06:48:39.908Z,1011.08
2022-09-06T06:49:39.905Z,1011.08
2022-09-06T06:50:39.899Z,1011.07
2022-09-06T06:51:39.882Z,1011.05
2022-09-06T06:52:39.880Z,1011.03
2022-09-06T06:53:39.861Z,1011.02
2022-09-06T06:54:39.871Z,1011.01
2022-09-06T06:55:39.822Z,1011.00
2022-09-06T06:56:39.860Z,1010.99
2022-09-06T06:57:39.828Z,1010.98
2022-09-06T06:58:39.810Z,1010.97
2022-09-06T06:59:39.810Z,1010.97
2022-09-06T07:00:39.869Z,1010.96
2022-09-06T07:01:40.098Z,1010.95
2022-09-06T07:02:39.763Z,1010.95
2022-09-06T07:03:39.736Z,1010.98
2022-09-06T07:04:39.773Z,1010.99
2022-09-06T07:07:41.115Z,1010.95
2022-09-06T07:08:39.700Z,1010.93
2022-09-06T07:10:39.700Z,1010.91
2022-09-06T07:11:39.671Z,1010.90
2022-09-06T07:12:39.677Z,1010.89
2022-09-06T07:13:39.641Z,1010.88
2022-09-06T07:14:39.670Z,1010.88
2022-09-06T07:15:39.620Z,1010.88
2022-09-06T07:16:39.764Z,1010.88
2022-09-06T07:17:39.642Z,1010.88
2022-09-06T07:18:39.624Z,1010.88
2022-09-06T07:21:39.664Z,1010.86
2022-09-06T07:22:39.597Z,1010.86
2022-09-06T07:24:39.548Z,1010.86
2022-09-06T07:25:39.546Z,1010.85
2022-09-06T07:26:39.916Z,1010.85
2022-09-06T07:27:47.383Z,1010.85
2022-09-06T07:28:39.515Z,1010.85
2022-09-06T07:29:39.524Z,1010.85
2022-09-06T07:30:39.460Z,1010.85
2022-09-06T07:32:39.477Z,1010.89
2022-09-06T07:33:39.436Z,1010.92
2022-09-06T07:34:39.445Z,1010.95
2022-09-06T07:35:39.439Z,1010.97
2022-09-06T07:36:39.412Z,1010.98
2022-09-06T07:37:39.409Z,1010.99
2022-09-06T07:38:39.387Z,1010.99
2022-09-06T07:39:39.364Z,1010.98
2022-09-06T07:40:39.365Z,1010.96
2022-09-06T07:41:39.373Z,1010.96
2022-09-06T07:42:39.365Z,1010.95
2022-09-06T07:43:39.326Z,1010.94
2022-09-06T07:44:39.346Z,1010.94
2022-09-06T07:45:39.305Z,1010.94
2022-09-06T07:46:39.433Z,1010.93
2022-09-06T07:48:39.282Z,1010.94
2022-09-06T07:49:39.414Z,1010.94
2022-09-06T07:50:47.463Z,1010.94
2022-09-06T07:51:39.260Z,1010.94
2022-09-06T07:53:39.219Z,1010.94
2022-09-06T07:54:39.209Z,1010.94
2022-09-06T07:55:39.197Z,1010.94
2022-09-06T07:56:39.223Z,1010.94
2022-09-06T07:57:39.211Z,1010.94
2022-09-06T07:58:39.212Z,1010.94
2022-09-06T07:59:42.865Z,1010.93
2022-09-06T08:00:39.235Z,1010.94
2022-09-06T08:01:39.273Z,1010.94
2022-09-06T08:02:39.158Z,1010.94
2022-09-06T08:03:39.153Z,1010.94
2022-09-06T08:04:39.135Z,1010.94
2022-09-06T08:07:39.333Z,1010.93
2022-09-06T08:09:39.064Z,1010.91
2022-09-06T08:10:39.079Z,1010.89
2022-09-06T08:11:39.043Z,1010.88
2022-09-06T08:12:39.049Z,1010.87
2022-09-06T08:13:39.046Z,1010.86
2022-09-06T08:14:39.050Z,1010.86
2022-09-06T08:15:41.625Z,1010.84
2022-09-06T08:16:39.037Z,1010.84
2022-09-06T08:17:38.978Z,1010.83
2022-09-06T08:18:38.999Z,1010.82
2022-09-06T08:19:38.987Z,1010.83
2022-09-06T08:20:38.970Z,1010.84
2022-09-06T08:21:38.971Z,1010.85
2022-09-06T08:22:38.938Z,1010.86
2022-09-06T08:23:38.935Z,1010.86
2022-09-06T08:24:38.926Z,1010.86
2022-09-06T08:25:38.911Z,1010.86
2022-09-06T08:26:38.894Z,1010.85
2022-09-06T08:27:38.888Z,1010.85
2022-09-06T08:28:38.878Z,1010.85
2022-09-06T08:29:38.871Z,1010.85
2022-09-06T08:30:38.884Z,1010.85
2022-09-06T08:31:38.946Z,1010.86
2022-09-06T08:32:38.849Z,1010.87
2022-09-06T08:33:38.848Z,1010.88
2022-09-06T08:34:38.843Z,1010.90
2022-09-06T08:35:38.794Z,1010.90
2022-09-06T08:36:38.810Z,1010.90
2022-09-06T08:37:38.792Z,1010.91
2022-09-06T08:38:38.791Z,1010.91
2022-09-06T08:39:38.798Z,1010.92
2022-09-06T08:40:38.748Z,1010.93
2022-09-06T08:41:38.736Z,1010.93
2022-09-06T08:42:38.731Z,1010.93
2022-09-06T08:43:38.711Z,1010.92
2022-09-06T08:45:38.750Z,1010.90
2022-09-06T08:46:38.734Z,1010.89
2022-09-06T08:47:38.662Z,1010.88
2022-09-06T08:48:38.676Z,1010.89
2022-09-06T08:49:38.656Z,1010.89
2022-09-06T08:50:38.691Z,1010.90
2022-09-06T08:51:38.733Z,1010.89
2022-09-06T08:52:45.268Z,1010.89
2022-09-06T08:53:38.659Z,1010.89
2022-09-06T08:54:38.630Z,1010.90
2022-09-06T08:55:38.594Z,1010.88
2022-09-06T08:56:38.604Z,1010.88
2022-09-06T08:57:40.431Z,1010.88
2022-09-06T08:58:38.587Z,1010.88
2022-09-06T08:59:38.551Z,1010.86
2022-09-06T09:00:38.594Z,1010.85
2022-09-06T09:01:38.582Z,1010.83
2022-09-06T09:02:38.514Z,1010.82
2022-09-06T09:03:38.506Z,1010.81
2022-09-06T09:04:38.524Z,1010.80
2022-09-06T09:05:38.509Z,1010.79
2022-09-06T09:06:38.467Z,1010.77
2022-09-06T09:07:38.485Z,1010.77
2022-09-06T09:08:38.453Z,1010.76
2022-09-06T09:09:38.475Z,1010.76
2022-09-06T09:10:38.495Z,1010.76
2022-09-06T09:11:38.425Z,1010.77
2022-09-06T09:12:38.410Z,1010.75
2022-09-06T09:13:38.425Z,1010.76
2022-09-06T09:14:38.401Z,1010.75
2022-09-06T09:15:40.567Z,1010.74
2022-09-06T09:16:38.486Z,1010.75
2022-09-06T09:17:38.378Z,1010.75
2022-09-06T09:18:38.368Z,1010.73
2022-09-06T09:19:38.409Z,1010.72
2022-09-06T09:20:38.354Z,1010.72
2022-09-06T09:21:38.326Z,1010.72
2022-09-06T09:22:38.313Z,1010.72
2022-09-06T09:23:38.321Z,1010.71
2022-09-06T09:24:38.304Z,1010.70
2022-09-06T09:25:38.315Z,1010.68
2022-09-06T09:26:38.281Z,1010.68
2022-09-06T09:27:38.306Z,1010.68
2022-09-06T09:28:38.257Z,1010.69
2022-09-06T09:29:38.397Z,1010.68
2022-09-06T09:30:53.516Z,1010.67
2022-09-06T09:31:38.300Z,1010.66
2022-09-06T09:32:38.233Z,1010.65
2022-09-06T09:33:38.218Z,1010.63
2022-09-06T09:34:38.205Z,1010.61
2022-09-06T09:35:38.226Z,1010.61
2022-09-06T09:36:38.261Z,1010.57
2022-09-06T09:38:38.177Z,1010.56
2022-09-06T09:39:38.239Z,1010.57
2022-09-06T09:40:38.162Z,1010.58
2022-09-06T09:41:38.139Z,1010.56
2022-09-06T09:42:38.123Z,1010.55
2022-09-06T09:43:38.128Z,1010.54
2022-09-06T09:44:38.101Z,1010.54
2022-09-06T09:45:38.101Z,1010.54
2022-09-06T09:46:38.128Z,1010.53
2022-09-06T09:47:38.107Z,1010.51
2022-09-06T09:48:38.054Z,1010.51
2022-09-06T09:49:38.046Z,1010.49
2022-09-06T09:50:38.071Z,1010.48
2022-09-06T09:51:38.061Z,1010.48
2022-09-06T09:52:38.004Z,1010.47
2022-09-06T09:53:38.012Z,1010.46
2022-09-06T09:54:38.025Z,1010.46
2022-09-06T09:55:38.000Z,1010.47
2022-09-06T09:56:37.974Z,1010.46
2022-09-06T09:57:37.982Z,1010.49
2022-09-06T09:58:37.947Z,1010.49
2022-09-06T09:59:37.951Z,1010.48
2022-09-06T10:00:38.006Z,1010.47
2022-09-06T10:01:38.934Z,1010.44
2022-09-06T10:02:37.935Z,1010.41
2022-09-06T10:04:45.019Z,1010.35
2022-09-06T10:05:37.910Z,1010.35
2022-09-06T10:07:37.890Z,1010.33
2022-09-06T10:08:37.860Z,1010.32
2022-09-06T10:09:37.860Z,1010.28
2022-09-06T10:10:37.855Z,1010.29
2022-09-06T10:11:37.869Z,1010.29
2022-09-06T10:12:37.812Z,1010.28
2022-09-06T10:13:37.836Z,1010.28
2022-09-06T10:14:37.808Z,1010.26
2022-09-06T10:15:37.861Z,1010.25
2022-09-06T10:16:37.826Z,1010.24
2022-09-06T10:17:37.824Z,1010.24
2022-09-06T10:18:37.905Z,1010.26
2022-09-06T10:19:37.760Z,1010.25
2022-09-06T10:20:37.866Z,1010.24
2022-09-06T10:21:37.830Z,1010.23
2022-09-06T10:22:38.704Z,1010.23
2022-09-06T10:24:38.502Z,1010.22
2022-09-06T10:25:37.824Z,1010.20
2022-09-06T10:26:37.701Z,1010.21
2022-09-06T10:27:45.700Z,1010.19
2022-09-06T10:28:37.715Z,1010.18
2022-09-06T10:29:37.660Z,1010.17
2022-09-06T10:30:38.481Z,1010.14
2022-09-06T10:31:37.849Z,1010.15
2022-09-06T10:32:37.783Z,1010.16
2022-09-06T10:33:37.711Z,1010.19
2022-09-06T10:34:37.658Z,1010.21
2022-09-06T10:35:37.634Z,1010.19
2022-09-06T10:36:38.353Z,1010.16
2022-09-06T10:37:47.856Z,1010.15
2022-09-06T10:39:49.724Z,1010.13
2022-09-06T10:40:50.672Z,1010.10
2022-09-06T10:41:50.672Z,1010.08
2022-09-06T10:42:50.642Z,1010.09
2022-09-06T10:43:50.650Z,1010.07
2022-09-06T10:44:50.653Z,1010.05
2022-09-06T10:45:50.620Z,1010.05
2022-09-06T10:46:50.697Z,1010.04
2022-09-06T10:47:50.613Z,1010.03
2022-09-06T10:48:50.588Z,1010.02
2022-09-06T10:49:50.592Z,1010.05
2022-09-06T10:50:50.564Z,1010.05
2022-09-06T10:51:50.559Z,1010.05
2022-09-06T10:52:50.561Z,1010.04
2022-09-06T10:53:50.553Z,1010.03
2022-09-06T10:54:50.532Z,1010.01
2022-09-06T10:55:50.516Z,1010.01
2022-09-06T10:56:50.552Z,1009.99
2022-09-06T10:59:52.016Z,1009.99
2022-09-06T11:00:50.515Z,1009.99
2022-09-06T11:01:50.568Z,1010.00
2022-09-06T11:03:58.276Z,1010.01
2022-09-06T11:05:50.428Z,1010.00
2022-09-06T11:06:50.484Z,1009.98
2022-09-06T11:08:52.240Z,1009.99
2022-09-06T11:09:50.384Z,1010.01
2022-09-06T11:10:50.368Z,1010.00
2022-09-06T11:11:50.464Z,1009.99
2022-09-06T11:12:50.365Z,1009.99
2022-09-06T11:13:50.363Z,1009.99
2022-09-06T11:14:51.205Z,1009.98
2022-09-06T11:15:50.429Z,1009.97
2022-09-06T11:16:50.312Z,1009.96
2022-09-06T11:17:50.304Z,1009.95
2022-09-06T11:18:50.303Z,1009.95
2022-09-06T11:19:50.272Z,1009.94
2022-09-06T11:20:50.303Z,1009.92
2022-09-06T11:21:50.256Z,1009.93
2022-09-06T11:22:50.262Z,1009.94
2022-09-06T11:23:50.290Z,1009.93
2022-09-06T11:24:50.232Z,1009.91
2022-09-06T11:25:50.221Z,1009.89
2022-09-06T11:26:50.207Z,1009.86
2022-09-06T11:27:50.208Z,1009.85
2022-09-06T11:28:50.219Z,1009.83
2022-09-06T11:29:50.192Z,1009.82
2022-09-06T11:30:50.205Z,1009.82
2022-09-06T11:32:50.170Z,1009.84
2022-09-06T11:33:50.171Z,1009.83
2022-09-06T11:34:50.140Z,1009.83
2022-09-06T11:35:50.128Z,1009.83
2022-09-06T11:36:50.116Z,1009.84
2022-09-06T11:37:50.108Z,1009.83
2022-09-06T11:38:50.107Z,1009.84
2022-09-06T11:40:50.084Z,1009.86
2022-09-06T11:41:50.044Z,1009.87
2022-09-06T11:42:50.057Z,1009.87
2022-09-06T11:43:50.054Z,1009.88
2022-09-06T11:44:50.033Z,1009.89
2022-09-06T11:45:50.026Z,1009.91
2022-09-06T11:46:50.066Z,1009.93
2022-09-06T11:47:50.028Z,1009.93
2022-09-06T11:48:49.984Z,1009.92
2022-09-06T11:49:49.969Z,1009.93
2022-09-06T11:50:50.002Z,1009.93
2022-09-06T11:51:49.972Z,1009.92
2022-09-06T11:52:49.961Z,1009.91
2022-09-06T11:53:49.946Z,1009.90
2022-09-06T11:54:49.951Z,1009.89
2022-09-06T11:55:49.919Z,1009.87
2022-09-06T11:56:49.909Z,1009.84
2022-09-06T11:57:49.897Z,1009.83
2022-09-06T11:58:49.900Z,1009.83
2022-09-06T11:59:49.891Z,1009.85
2022-09-06T12:00:49.866Z,1009.88
2022-09-06T12:01:49.870Z,1009.88
2022-09-06T12:02:49.961Z,1009.88
2022-09-06T12:04:06.734Z,1009.85
2022-09-06T12:04:49.873Z,1009.83
2022-09-06T12:05:49.817Z,1009.82
2022-09-06T12:06:49.825Z,1009.83
2022-09-06T12:07:49.816Z,1009.84
2022-09-06T12:08:49.791Z,1009.83
2022-09-06T12:09:49.773Z,1009.83
2022-09-06T12:10:49.790Z,1009.84
2022-09-06T12:11:49.757Z,1009.81
2022-09-06T12:12:49.780Z,1009.83
2022-09-06T12:13:49.738Z,1009.83
2022-09-06T12:14:49.724Z,1009.81
2022-09-06T12:15:49.738Z,1009.81
2022-09-06T12:16:49.752Z,1009.78
2022-09-06T12:17:49.713Z,1009.78
2022-09-06T12:18:49.741Z,1009.79
2022-09-06T12:19:49.683Z,1009.73
2022-09-06T12:20:49.673Z,1009.72
2022-09-06T12:21:49.676Z,1009.77
2022-09-06T12:22:49.652Z,1009.75
2022-09-06T12:23:49.639Z,1009.77
2022-09-06T12:24:49.645Z,1009.77
2022-09-06T12:25:49.711Z,1009.77
2022-09-06T12:26:54.439Z,1009.75
2022-09-06T12:27:49.614Z,1009.73
2022-09-06T12:28:49.607Z,1009.73
2022-09-06T12:29:49.581Z,1009.71
2022-09-06T12:30:49.653Z,1009.74